CheckWX is a tool to help pilots better visualize weather data.  It is not intended as a substitute for an official pre-flight weather briefing.

21:06:34 UTC

KABR METAR
Aberdeen Regional Airport
Aberdeen, South Dakota, USA
Current

14 mins ago

KABR 232053Z AUTO 35008KT 10SM CLR M07/M11 A2987 RMK AO2 SLP136 T10671111 56020
Observed
Feb-23 @ 20:53 UTC
Wind
  • 350° at 8 KTS
Visibility
10 SM
Flight Rules
VFR
Cloud Levels
  • Clear skies
Temperature
-7°C / 19°F
Dewpoint
-11°C / 12°F
Humidity
73%
Altimeter
29.87" Hg
Pressure
1013.6 hPa
Previous

1 hour ago

KABR 231953Z AUTO 34008KT 10SM CLR M07/M11 A2988 RMK AO2 SLP139 T10671106
Observed
Feb-23 @ 19:53 UTC
Wind
  • 340° at 8 KTS
Visibility
10 SM
Flight Rules
VFR
Cloud Levels
  • Clear skies
Temperature
-7°C / 19°F
Dewpoint
-11°C / 12°F
Humidity
73%
Altimeter
29.88" Hg
Pressure
1013.9 hPa
Previous

2 hours ago

KABR 231853Z AUTO 32007KT 7SM CLR M07/M11 A2990 RMK AO2 SLP145 T10671106
Observed
Feb-23 @ 18:53 UTC
Wind
  • 320° at 7 KTS
Visibility
7 SM
Flight Rules
VFR
Cloud Levels
  • Clear skies
Temperature
-7°C / 19°F
Dewpoint
-11°C / 12°F
Humidity
73%
Altimeter
29.9" Hg
Pressure
1014.5 hPa